sensor_id;sensor_type;location;lat;lon;timestamp;P1;durP1;ratioP1;P2;durP2;ratioP2
76065;SDS011;64763;48.928;8.474;2023-01-29T00:01:54;9.40;;;5.97;;
76065;SDS011;64763;48.928;8.474;2023-01-29T00:04:19;8.02;;;5.13;;
76065;SDS011;64763;48.928;8.474;2023-01-29T00:06:45;8.15;;;5.43;;
76065;SDS011;64763;48.928;8.474;2023-01-29T00:09:11;9.20;;;5.55;;
76065;SDS011;64763;48.928;8.474;2023-01-29T00:11:36;9.05;;;5.38;;
76065;SDS011;64763;48.928;8.474;2023-01-29T00:14:02;7.82;;;5.18;;
76065;SDS011;64763;48.928;8.474;2023-01-29T00:16:27;8.43;;;5.43;;
76065;SDS011;64763;48.928;8.474;2023-01-29T00:18:53;8.93;;;5.57;;
76065;SDS011;64763;48.928;8.474;2023-01-29T00:21:19;8.82;;;5.80;;
76065;SDS011;64763;48.928;8.474;2023-01-29T00:23:46;7.88;;;5.18;;
76065;SDS011;64763;48.928;8.474;2023-01-29T00:26:11;6.85;;;4.65;;
76065;SDS011;64763;48.928;8.474;2023-01-29T00:28:37;8.55;;;4.93;;
76065;SDS011;64763;48.928;8.474;2023-01-29T00:31:21;7.97;;;4.75;;
76065;SDS011;64763;48.928;8.474;2023-01-29T00:33:48;9.07;;;5.22;;
76065;SDS011;64763;48.928;8.474;2023-01-29T00:36:14;8.20;;;5.30;;
76065;SDS011;64763;48.928;8.474;2023-01-29T00:38:40;8.02;;;5.60;;
76065;SDS011;64763;48.928;8.474;2023-01-29T00:43:50;8.93;;;5.65;;
76065;SDS011;64763;48.928;8.474;2023-01-29T00:46:34;7.10;;;4.72;;
76065;SDS011;64763;48.928;8.474;2023-01-29T00:48:59;7.95;;;5.40;;
76065;SDS011;64763;48.928;8.474;2023-01-29T00:51:25;9.35;;;5.32;;
76065;SDS011;64763;48.928;8.474;2023-01-29T00:53:50;10.57;;;5.72;;
76065;SDS011;64763;48.928;8.474;2023-01-29T00:56:15;9.05;;;5.70;;
76065;SDS011;64763;48.928;8.474;2023-01-29T00:58:41;8.00;;;5.40;;
76065;SDS011;64763;48.928;8.474;2023-01-29T01:01:06;8.32;;;5.32;;
76065;SDS011;64763;48.928;8.474;2023-01-29T01:03:31;9.63;;;5.30;;
76065;SDS011;64763;48.928;8.474;2023-01-29T01:06:06;10.05;;;5.28;;
76065;SDS011;64763;48.928;8.474;2023-01-29T01:08:33;8.75;;;5.45;;
76065;SDS011;64763;48.928;8.474;2023-01-29T01:11:17;9.98;;;5.88;;
76065;SDS011;64763;48.928;8.474;2023-01-29T01:13:43;8.00;;;5.13;;
76065;SDS011;64763;48.928;8.474;2023-01-29T01:16:12;8.90;;;5.63;;
76065;SDS011;64763;48.928;8.474;2023-01-29T01:18:39;8.30;;;4.82;;
76065;SDS011;64763;48.928;8.474;2023-01-29T01:21:05;7.60;;;5.47;;
76065;SDS011;64763;48.928;8.474;2023-01-29T01:23:30;7.97;;;4.95;;
76065;SDS011;64763;48.928;8.474;2023-01-29T01:25:56;9.77;;;5.00;;
76065;SDS011;64763;48.928;8.474;2023-01-29T01:28:21;7.80;;;5.07;;
76065;SDS011;64763;48.928;8.474;2023-01-29T01:30:47;9.55;;;5.07;;
76065;SDS011;64763;48.928;8.474;2023-01-29T01:33:12;7.97;;;5.80;;
76065;SDS011;64763;48.928;8.474;2023-01-29T01:35:38;9.93;;;5.97;;
76065;SDS011;64763;48.928;8.474;2023-01-29T01:38:04;10.35;;;5.53;;
76065;SDS011;64763;48.928;8.474;2023-01-29T01:40:29;8.20;;;5.38;;
76065;SDS011;64763;48.928;8.474;2023-01-29T01:42:56;7.78;;;5.00;;
76065;SDS011;64763;48.928;8.474;2023-01-29T01:45:27;10.10;;;5.85;;
76065;SDS011;64763;48.928;8.474;2023-01-29T01:50:38;9.43;;;5.32;;
76065;SDS011;64763;48.928;8.474;2023-01-29T01:53:14;7.45;;;4.80;;
76065;SDS011;64763;48.928;8.474;2023-01-29T01:55:51;9.07;;;5.78;;
76065;SDS011;64763;48.928;8.474;2023-01-29T01:58:24;8.25;;;5.00;;
76065;SDS011;64763;48.928;8.474;2023-01-29T02:00:52;7.80;;;5.10;;
76065;SDS011;64763;48.928;8.474;2023-01-29T02:03:19;9.13;;;5.22;;
76065;SDS011;64763;48.928;8.474;2023-01-29T02:06:03;8.88;;;5.47;;
76065;SDS011;64763;48.928;8.474;2023-01-29T02:08:51;7.40;;;4.82;;
76065;SDS011;64763;48.928;8.474;2023-01-29T02:11:38;9.13;;;5.15;;
76065;SDS011;64763;48.928;8.474;2023-01-29T02:14:03;7.57;;;5.18;;
76065;SDS011;64763;48.928;8.474;2023-01-29T02:16:29;8.05;;;5.55;;
76065;SDS011;64763;48.928;8.474;2023-01-29T02:18:54;11.90;;;5.90;;
76065;SDS011;64763;48.928;8.474;2023-01-29T02:21:35;8.45;;;5.20;;
76065;SDS011;64763;48.928;8.474;2023-01-29T02:27:09;11.18;;;4.85;;
76065;SDS011;64763;48.928;8.474;2023-01-29T02:32:40;8.70;;;4.88;;
76065;SDS011;64763;48.928;8.474;2023-01-29T02:35:23;8.07;;;5.13;;
76065;SDS011;64763;48.928;8.474;2023-01-29T02:38:05;9.20;;;5.20;;
76065;SDS011;64763;48.928;8.474;2023-01-29T02:45:34;9.43;;;5.32;;
76065;SDS011;64763;48.928;8.474;2023-01-29T02:48:07;10.35;;;5.60;;
76065;SDS011;64763;48.928;8.474;2023-01-29T02:56:20;9.65;;;5.40;;
76065;SDS011;64763;48.928;8.474;2023-01-29T02:58:52;10.95;;;5.65;;
76065;SDS011;64763;48.928;8.474;2023-01-29T03:01:22;7.43;;;4.70;;
76065;SDS011;64763;48.928;8.474;2023-01-29T03:04:02;9.88;;;5.45;;
76065;SDS011;64763;48.928;8.474;2023-01-29T03:06:37;7.90;;;5.20;;
76065;SDS011;64763;48.928;8.474;2023-01-29T03:09:07;8.65;;;5.72;;
76065;SDS011;64763;48.928;8.474;2023-01-29T03:11:36;8.57;;;5.50;;
76065;SDS011;64763;48.928;8.474;2023-01-29T03:14:07;8.70;;;4.90;;
76065;SDS011;64763;48.928;8.474;2023-01-29T03:16:48;9.75;;;5.38;;
76065;SDS011;64763;48.928;8.474;2023-01-29T03:21:56;9.07;;;5.43;;
76065;SDS011;64763;48.928;8.474;2023-01-29T03:27:21;7.80;;;5.07;;
76065;SDS011;64763;48.928;8.474;2023-01-29T03:30:08;9.85;;;5.30;;
76065;SDS011;64763;48.928;8.474;2023-01-29T03:32:53;9.30;;;5.05;;
76065;SDS011;64763;48.928;8.474;2023-01-29T03:35:21;10.50;;;5.35;;
76065;SDS011;64763;48.928;8.474;2023-01-29T03:37:59;8.93;;;5.65;;
76065;SDS011;64763;48.928;8.474;2023-01-29T03:40:25;8.63;;;5.40;;
76065;SDS011;64763;48.928;8.474;2023-01-29T03:42:56;9.90;;;5.60;;
76065;SDS011;64763;48.928;8.474;2023-01-29T03:45:35;9.80;;;5.80;;
76065;SDS011;64763;48.928;8.474;2023-01-29T03:48:20;10.40;;;6.35;;
76065;SDS011;64763;48.928;8.474;2023-01-29T03:50:53;10.73;;;5.30;;
76065;SDS011;64763;48.928;8.474;2023-01-29T03:53:23;8.75;;;5.88;;
76065;SDS011;64763;48.928;8.474;2023-01-29T03:56:00;7.45;;;4.75;;
76065;SDS011;64763;48.928;8.474;2023-01-29T03:58:35;9.60;;;5.82;;
76065;SDS011;64763;48.928;8.474;2023-01-29T04:01:16;11.15;;;5.32;;
76065;SDS011;64763;48.928;8.474;2023-01-29T04:03:55;13.75;;;5.75;;
76065;SDS011;64763;48.928;8.474;2023-01-29T04:09:02;8.80;;;4.82;;
76065;SDS011;64763;48.928;8.474;2023-01-29T04:11:29;10.15;;;5.95;;
76065;SDS011;64763;48.928;8.474;2023-01-29T04:13:55;9.32;;;5.43;;
76065;SDS011;64763;48.928;8.474;2023-01-29T04:16:22;11.02;;;5.75;;
76065;SDS011;64763;48.928;8.474;2023-01-29T04:18:51;9.38;;;5.75;;
76065;SDS011;64763;48.928;8.474;2023-01-29T04:21:18;8.52;;;5.45;;
76065;SDS011;64763;48.928;8.474;2023-01-29T04:23:43;8.38;;;5.43;;
76065;SDS011;64763;48.928;8.474;2023-01-29T04:28:58;8.43;;;5.43;;
76065;SDS011;64763;48.928;8.474;2023-01-29T04:31:21;8.85;;;5.45;;
76065;SDS011;64763;48.928;8.474;2023-01-29T04:34:00;10.02;;;5.18;;
76065;SDS011;64763;48.928;8.474;2023-01-29T04:36:54;10.93;;;5.82;;
76065;SDS011;64763;48.928;8.474;2023-01-29T04:42:08;9.38;;;5.43;;
76065;SDS011;64763;48.928;8.474;2023-01-29T04:44:40;10.65;;;5.57;;
76065;SDS011;64763;48.928;8.474;2023-01-29T04:47:20;8.15;;;4.93;;
76065;SDS011;64763;48.928;8.474;2023-01-29T05:00:25;9.98;;;6.18;;
76065;SDS011;64763;48.928;8.474;2023-01-29T05:02:52;10.45;;;5.50;;
76065;SDS011;64763;48.928;8.474;2023-01-29T05:05:19;10.10;;;5.82;;
76065;SDS011;64763;48.928;8.474;2023-01-29T05:07:45;9.02;;;5.60;;
76065;SDS011;64763;48.928;8.474;2023-01-29T05:10:12;9.38;;;5.57;;
76065;SDS011;64763;48.928;8.474;2023-01-29T05:12:38;10.85;;;5.50;;
76065;SDS011;64763;48.928;8.474;2023-01-29T05:15:07;9.10;;;5.45;;
76065;SDS011;64763;48.928;8.474;2023-01-29T05:17:38;9.73;;;5.40;;
76065;SDS011;64763;48.928;8.474;2023-01-29T05:20:04;9.60;;;5.97;;
76065;SDS011;64763;48.928;8.474;2023-01-29T05:22:30;11.95;;;5.60;;
76065;SDS011;64763;48.928;8.474;2023-01-29T05:24:55;10.68;;;5.93;;
76065;SDS011;64763;48.928;8.474;2023-01-29T05:27:27;11.95;;;5.90;;
76065;SDS011;64763;48.928;8.474;2023-01-29T05:30:17;8.30;;;5.47;;
76065;SDS011;64763;48.928;8.474;2023-01-29T05:32:42;10.00;;;5.97;;
76065;SDS011;64763;48.928;8.474;2023-01-29T05:35:08;10.90;;;5.68;;
76065;SDS011;64763;48.928;8.474;2023-01-29T05:37:33;8.32;;;5.32;;
76065;SDS011;64763;48.928;8.474;2023-01-29T05:39:58;9.02;;;4.90;;
76065;SDS011;64763;48.928;8.474;2023-01-29T05:44:49;9.10;;;5.70;;
76065;SDS011;64763;48.928;8.474;2023-01-29T05:47:17;10.00;;;5.63;;
76065;SDS011;64763;48.928;8.474;2023-01-29T05:49:43;9.02;;;5.60;;
76065;SDS011;64763;48.928;8.474;2023-01-29T05:52:09;8.50;;;4.93;;
76065;SDS011;64763;48.928;8.474;2023-01-29T05:54:34;9.25;;;5.70;;
76065;SDS011;64763;48.928;8.474;2023-01-29T05:56:59;9.73;;;5.88;;
76065;SDS011;64763;48.928;8.474;2023-01-29T05:59:25;8.23;;;5.10;;
76065;SDS011;64763;48.928;8.474;2023-01-29T06:01:50;9.50;;;5.68;;
76065;SDS011;64763;48.928;8.474;2023-01-29T06:06:41;8.50;;;4.30;;
76065;SDS011;64763;48.928;8.474;2023-01-29T06:09:06;11.75;;;5.82;;
76065;SDS011;64763;48.928;8.474;2023-01-29T06:11:31;10.90;;;5.85;;
76065;SDS011;64763;48.928;8.474;2023-01-29T06:13:56;9.18;;;5.63;;
76065;SDS011;64763;48.928;8.474;2023-01-29T06:16:22;9.25;;;5.25;;
76065;SDS011;64763;48.928;8.474;2023-01-29T06:18:47;11.02;;;5.55;;
76065;SDS011;64763;48.928;8.474;2023-01-29T06:21:12;7.97;;;5.75;;
76065;SDS011;64763;48.928;8.474;2023-01-29T06:23:38;9.27;;;5.45;;
76065;SDS011;64763;48.928;8.474;2023-01-29T06:26:05;8.35;;;5.63;;
76065;SDS011;64763;48.928;8.474;2023-01-29T06:28:32;10.88;;;5.35;;
76065;SDS011;64763;48.928;8.474;2023-01-29T06:30:58;9.35;;;5.57;;
76065;SDS011;64763;48.928;8.474;2023-01-29T06:33:24;8.63;;;5.65;;
76065;SDS011;64763;48.928;8.474;2023-01-29T06:35:54;10.80;;;5.90;;
76065;SDS011;64763;48.928;8.474;2023-01-29T06:38:23;9.65;;;5.40;;
76065;SDS011;64763;48.928;8.474;2023-01-29T06:40:49;11.00;;;5.43;;
76065;SDS011;64763;48.928;8.474;2023-01-29T06:43:15;22.33;;;8.38;;
76065;SDS011;64763;48.928;8.474;2023-01-29T06:45:50;17.02;;;7.80;;
76065;SDS011;64763;48.928;8.474;2023-01-29T06:48:17;12.23;;;6.35;;
76065;SDS011;64763;48.928;8.474;2023-01-29T06:50:42;8.65;;;5.82;;
76065;SDS011;64763;48.928;8.474;2023-01-29T06:53:08;9.27;;;6.50;;
76065;SDS011;64763;48.928;8.474;2023-01-29T06:55:33;9.98;;;5.72;;
76065;SDS011;64763;48.928;8.474;2023-01-29T06:57:58;9.13;;;5.60;;
76065;SDS011;64763;48.928;8.474;2023-01-29T07:00:24;12.40;;;6.03;;
76065;SDS011;64763;48.928;8.474;2023-01-29T07:02:49;10.38;;;6.20;;
76065;SDS011;64763;48.928;8.474;2023-01-29T07:05:15;9.45;;;5.55;;
76065;SDS011;64763;48.928;8.474;2023-01-29T07:07:40;10.38;;;6.30;;
76065;SDS011;64763;48.928;8.474;2023-01-29T07:10:06;10.23;;;5.75;;
76065;SDS011;64763;48.928;8.474;2023-01-29T07:12:32;9.90;;;5.72;;
76065;SDS011;64763;48.928;8.474;2023-01-29T07:14:57;9.65;;;5.93;;
76065;SDS011;64763;48.928;8.474;2023-01-29T07:17:22;8.45;;;5.68;;
76065;SDS011;64763;48.928;8.474;2023-01-29T07:19:48;9.00;;;5.72;;
76065;SDS011;64763;48.928;8.474;2023-01-29T07:22:13;9.93;;;5.43;;
76065;SDS011;64763;48.928;8.474;2023-01-29T07:24:40;10.13;;;5.68;;
76065;SDS011;64763;48.928;8.474;2023-01-29T07:27:05;10.35;;;5.80;;
76065;SDS011;64763;48.928;8.474;2023-01-29T07:29:30;13.18;;;6.45;;
76065;SDS011;64763;48.928;8.474;2023-01-29T07:31:56;9.60;;;5.80;;
76065;SDS011;64763;48.928;8.474;2023-01-29T07:34:21;9.40;;;5.07;;
76065;SDS011;64763;48.928;8.474;2023-01-29T07:36:46;9.65;;;5.65;;
76065;SDS011;64763;48.928;8.474;2023-01-29T07:39:12;10.02;;;6.18;;
76065;SDS011;64763;48.928;8.474;2023-01-29T07:41:37;9.75;;;5.80;;
76065;SDS011;64763;48.928;8.474;2023-01-29T07:44:02;9.85;;;6.03;;
76065;SDS011;64763;48.928;8.474;2023-01-29T07:46:28;13.88;;;6.57;;
76065;SDS011;64763;48.928;8.474;2023-01-29T07:48:53;10.00;;;5.72;;
76065;SDS011;64763;48.928;8.474;2023-01-29T07:51:19;8.73;;;5.50;;
76065;SDS011;64763;48.928;8.474;2023-01-29T07:53:45;10.15;;;6.00;;
76065;SDS011;64763;48.928;8.474;2023-01-29T07:56:11;10.63;;;6.35;;
76065;SDS011;64763;48.928;8.474;2023-01-29T07:58:36;8.32;;;5.28;;
76065;SDS011;64763;48.928;8.474;2023-01-29T08:01:05;8.30;;;5.30;;
76065;SDS011;64763;48.928;8.474;2023-01-29T08:03:31;8.35;;;5.30;;
76065;SDS011;64763;48.928;8.474;2023-01-29T08:05:57;15.98;;;8.80;;
76065;SDS011;64763;48.928;8.474;2023-01-29T08:08:22;11.77;;;8.20;;
76065;SDS011;64763;48.928;8.474;2023-01-29T08:10:47;9.63;;;6.07;;
76065;SDS011;64763;48.928;8.474;2023-01-29T08:13:13;9.93;;;5.60;;
76065;SDS011;64763;48.928;8.474;2023-01-29T08:15:41;12.13;;;7.25;;
76065;SDS011;64763;48.928;8.474;2023-01-29T08:18:08;12.18;;;6.82;;
76065;SDS011;64763;48.928;8.474;2023-01-29T08:20:33;10.38;;;5.45;;
76065;SDS011;64763;48.928;8.474;2023-01-29T08:22:59;9.32;;;5.18;;
76065;SDS011;64763;48.928;8.474;2023-01-29T08:25:25;10.13;;;6.10;;
76065;SDS011;64763;48.928;8.474;2023-01-29T08:27:51;9.25;;;5.82;;
76065;SDS011;64763;48.928;8.474;2023-01-29T08:30:16;7.68;;;5.32;;
76065;SDS011;64763;48.928;8.474;2023-01-29T08:32:42;10.13;;;6.00;;
76065;SDS011;64763;48.928;8.474;2023-01-29T08:35:07;11.02;;;6.43;;
76065;SDS011;64763;48.928;8.474;2023-01-29T08:37:33;10.25;;;4.93;;
76065;SDS011;64763;48.928;8.474;2023-01-29T08:39:58;8.45;;;5.55;;
76065;SDS011;64763;48.928;8.474;2023-01-29T08:42:24;8.75;;;5.53;;
76065;SDS011;64763;48.928;8.474;2023-01-29T08:44:49;8.23;;;5.15;;
76065;SDS011;64763;48.928;8.474;2023-01-29T08:47:14;8.48;;;5.38;;
76065;SDS011;64763;48.928;8.474;2023-01-29T08:49:39;7.57;;;5.43;;
76065;SDS011;64763;48.928;8.474;2023-01-29T08:52:05;8.95;;;5.50;;
76065;SDS011;64763;48.928;8.474;2023-01-29T08:54:30;9.15;;;5.57;;
76065;SDS011;64763;48.928;8.474;2023-01-29T08:56:55;8.60;;;4.65;;
76065;SDS011;64763;48.928;8.474;2023-01-29T08:59:21;9.18;;;5.95;;
76065;SDS011;64763;48.928;8.474;2023-01-29T09:01:46;8.90;;;4.65;;
76065;SDS011;64763;48.928;8.474;2023-01-29T09:04:12;10.35;;;5.38;;
76065;SDS011;64763;48.928;8.474;2023-01-29T09:06:47;10.38;;;5.60;;
76065;SDS011;64763;48.928;8.474;2023-01-29T09:09:12;8.13;;;5.20;;
76065;SDS011;64763;48.928;8.474;2023-01-29T09:11:38;8.73;;;5.30;;
76065;SDS011;64763;48.928;8.474;2023-01-29T09:14:04;8.73;;;5.32;;
76065;SDS011;64763;48.928;8.474;2023-01-29T09:16:30;9.70;;;5.57;;
76065;SDS011;64763;48.928;8.474;2023-01-29T09:18:55;8.45;;;5.28;;
76065;SDS011;64763;48.928;8.474;2023-01-29T09:21:20;10.38;;;6.72;;
76065;SDS011;64763;48.928;8.474;2023-01-29T09:23:46;12.45;;;7.70;;
76065;SDS011;64763;48.928;8.474;2023-01-29T09:26:11;8.68;;;5.97;;
76065;SDS011;64763;48.928;8.474;2023-01-29T09:28:37;7.43;;;4.47;;
76065;SDS011;64763;48.928;8.474;2023-01-29T09:31:02;8.23;;;5.03;;
76065;SDS011;64763;48.928;8.474;2023-01-29T09:33:28;10.38;;;4.78;;
76065;SDS011;64763;48.928;8.474;2023-01-29T09:35:54;7.57;;;5.47;;
76065;SDS011;64763;48.928;8.474;2023-01-29T09:38:20;8.07;;;4.95;;
76065;SDS011;64763;48.928;8.474;2023-01-29T09:41:04;7.72;;;5.00;;
76065;SDS011;64763;48.928;8.474;2023-01-29T09:46:41;8.55;;;5.63;;
76065;SDS011;64763;48.928;8.474;2023-01-29T09:49:05;8.98;;;6.30;;
76065;SDS011;64763;48.928;8.474;2023-01-29T09:51:55;8.45;;;5.60;;
76065;SDS011;64763;48.928;8.474;2023-01-29T09:54:50;11.55;;;5.75;;
76065;SDS011;64763;48.928;8.474;2023-01-29T09:57:23;7.63;;;4.95;;
76065;SDS011;64763;48.928;8.474;2023-01-29T09:59:51;8.85;;;5.32;;
76065;SDS011;64763;48.928;8.474;2023-01-29T10:05:33;6.03;;;4.75;;
76065;SDS011;64763;48.928;8.474;2023-01-29T10:13:43;6.38;;;4.10;;
76065;SDS011;64763;48.928;8.474;2023-01-29T10:16:16;5.32;;;3.90;;
76065;SDS011;64763;48.928;8.474;2023-01-29T10:19:02;6.50;;;4.38;;
76065;SDS011;64763;48.928;8.474;2023-01-29T10:27:15;8.55;;;3.95;;
76065;SDS011;64763;48.928;8.474;2023-01-29T10:29:42;5.72;;;4.13;;
76065;SDS011;64763;48.928;8.474;2023-01-29T10:32:16;6.75;;;3.63;;
76065;SDS011;64763;48.928;8.474;2023-01-29T10:34:56;6.40;;;3.95;;
76065;SDS011;64763;48.928;8.474;2023-01-29T10:37:36;4.32;;;3.40;;
76065;SDS011;64763;48.928;8.474;2023-01-29T10:42:42;6.97;;;4.82;;
76065;SDS011;64763;48.928;8.474;2023-01-29T10:53:26;7.18;;;4.20;;
76065;SDS011;64763;48.928;8.474;2023-01-29T10:56:07;6.28;;;4.38;;
76065;SDS011;64763;48.928;8.474;2023-01-29T10:58:49;8.93;;;5.18;;
76065;SDS011;64763;48.928;8.474;2023-01-29T11:01:16;8.68;;;5.45;;
76065;SDS011;64763;48.928;8.474;2023-01-29T11:03:41;6.72;;;3.67;;
76065;SDS011;64763;48.928;8.474;2023-01-29T11:06:23;5.60;;;3.67;;
76065;SDS011;64763;48.928;8.474;2023-01-29T11:14:23;5.88;;;4.07;;
76065;SDS011;64763;48.928;8.474;2023-01-29T11:16:51;8.30;;;4.82;;
76065;SDS011;64763;48.928;8.474;2023-01-29T11:19:16;5.03;;;3.28;;
76065;SDS011;64763;48.928;8.474;2023-01-29T11:21:52;5.55;;;3.70;;
76065;SDS011;64763;48.928;8.474;2023-01-29T11:24:21;4.35;;;3.13;;
76065;SDS011;64763;48.928;8.474;2023-01-29T11:26:47;5.70;;;3.60;;
76065;SDS011;64763;48.928;8.474;2023-01-29T11:31:51;6.28;;;4.45;;
76065;SDS011;64763;48.928;8.474;2023-01-29T11:34:18;6.60;;;4.18;;
76065;SDS011;64763;48.928;8.474;2023-01-29T11:36:45;7.88;;;4.32;;
76065;SDS011;64763;48.928;8.474;2023-01-29T11:39:18;6.45;;;4.38;;
76065;SDS011;64763;48.928;8.474;2023-01-29T11:42:02;6.85;;;4.18;;
76065;SDS011;64763;48.928;8.474;2023-01-29T11:44:30;5.13;;;3.72;;
76065;SDS011;64763;48.928;8.474;2023-01-29T11:49:59;6.85;;;4.32;;
76065;SDS011;64763;48.928;8.474;2023-01-29T11:52:26;6.15;;;4.03;;
76065;SDS011;64763;48.928;8.474;2023-01-29T11:55:12;6.05;;;4.05;;
76065;SDS011;64763;48.928;8.474;2023-01-29T12:00:32;8.38;;;6.03;;
76065;SDS011;64763;48.928;8.474;2023-01-29T12:05:39;6.55;;;4.22;;
76065;SDS011;64763;48.928;8.474;2023-01-29T12:08:13;9.57;;;4.97;;
76065;SDS011;64763;48.928;8.474;2023-01-29T12:10:40;9.60;;;5.65;;
76065;SDS011;64763;48.928;8.474;2023-01-29T12:13:14;8.43;;;4.88;;
76065;SDS011;64763;48.928;8.474;2023-01-29T12:15:46;6.80;;;4.57;;
76065;SDS011;64763;48.928;8.474;2023-01-29T12:18:19;8.90;;;4.50;;
76065;SDS011;64763;48.928;8.474;2023-01-29T12:20:54;7.05;;;4.32;;
76065;SDS011;64763;48.928;8.474;2023-01-29T12:23:45;10.07;;;5.22;;
76065;SDS011;64763;48.928;8.474;2023-01-29T12:26:32;7.22;;;4.53;;
76065;SDS011;64763;48.928;8.474;2023-01-29T12:31:34;6.63;;;4.60;;
76065;SDS011;64763;48.928;8.474;2023-01-29T12:36:54;6.68;;;4.07;;
76065;SDS011;64763;48.928;8.474;2023-01-29T12:39:22;5.63;;;4.03;;
76065;SDS011;64763;48.928;8.474;2023-01-29T12:41:52;5.43;;;3.88;;
76065;SDS011;64763;48.928;8.474;2023-01-29T12:44:25;7.03;;;4.00;;
76065;SDS011;64763;48.928;8.474;2023-01-29T12:46:57;4.35;;;2.90;;
76065;SDS011;64763;48.928;8.474;2023-01-29T12:49:25;7.90;;;4.40;;
76065;SDS011;64763;48.928;8.474;2023-01-29T12:51:55;6.80;;;4.72;;
76065;SDS011;64763;48.928;8.474;2023-01-29T12:54:34;9.23;;;5.85;;
76065;SDS011;64763;48.928;8.474;2023-01-29T12:57:03;6.45;;;4.50;;
76065;SDS011;64763;48.928;8.474;2023-01-29T12:59:38;7.55;;;4.70;;
76065;SDS011;64763;48.928;8.474;2023-01-29T13:02:19;6.18;;;4.43;;
76065;SDS011;64763;48.928;8.474;2023-01-29T13:04:50;6.13;;;4.25;;
76065;SDS011;64763;48.928;8.474;2023-01-29T13:07:31;7.45;;;5.35;;
76065;SDS011;64763;48.928;8.474;2023-01-29T13:10:04;6.03;;;4.45;;
76065;SDS011;64763;48.928;8.474;2023-01-29T13:12:36;8.73;;;5.22;;
76065;SDS011;64763;48.928;8.474;2023-01-29T13:15:12;8.25;;;5.07;;
76065;SDS011;64763;48.928;8.474;2023-01-29T13:17:42;6.15;;;3.95;;
76065;SDS011;64763;48.928;8.474;2023-01-29T13:20:17;9.48;;;5.70;;
76065;SDS011;64763;48.928;8.474;2023-01-29T13:22:46;8.88;;;5.70;;
76065;SDS011;64763;48.928;8.474;2023-01-29T13:25:16;9.68;;;5.05;;
76065;SDS011;64763;48.928;8.474;2023-01-29T13:27:42;7.05;;;4.78;;
76065;SDS011;64763;48.928;8.474;2023-01-29T13:30:22;9.35;;;5.18;;
76065;SDS011;64763;48.928;8.474;2023-01-29T13:32:52;10.02;;;6.03;;
76065;SDS011;64763;48.928;8.474;2023-01-29T13:35:19;7.95;;;4.47;;
76065;SDS011;64763;48.928;8.474;2023-01-29T13:37:50;9.00;;;5.63;;
76065;SDS011;64763;48.928;8.474;2023-01-29T13:40:26;6.18;;;4.43;;
76065;SDS011;64763;48.928;8.474;2023-01-29T13:42:53;8.90;;;5.63;;
76065;SDS011;64763;48.928;8.474;2023-01-29T13:45:21;8.18;;;5.00;;
76065;SDS011;64763;48.928;8.474;2023-01-29T13:47:47;9.52;;;5.82;;
76065;SDS011;64763;48.928;8.474;2023-01-29T13:50:17;7.32;;;5.03;;
76065;SDS011;64763;48.928;8.474;2023-01-29T13:52:58;9.27;;;5.32;;
76065;SDS011;64763;48.928;8.474;2023-01-29T13:55:30;10.27;;;6.35;;
76065;SDS011;64763;48.928;8.474;2023-01-29T13:57:57;8.90;;;5.43;;
76065;SDS011;64763;48.928;8.474;2023-01-29T14:07:58;8.82;;;5.25;;
76065;SDS011;64763;48.928;8.474;2023-01-29T14:10:31;7.32;;;4.80;;
76065;SDS011;64763;48.928;8.474;2023-01-29T14:15:35;7.25;;;4.57;;
76065;SDS011;64763;48.928;8.474;2023-01-29T14:20:33;8.77;;;5.72;;
76065;SDS011;64763;48.928;8.474;2023-01-29T14:23:01;8.07;;;5.15;;
76065;SDS011;64763;48.928;8.474;2023-01-29T14:25:36;8.38;;;4.72;;
76065;SDS011;64763;48.928;8.474;2023-01-29T14:28:02;6.82;;;4.82;;
76065;SDS011;64763;48.928;8.474;2023-01-29T14:30:30;6.82;;;4.70;;
76065;SDS011;64763;48.928;8.474;2023-01-29T14:32:56;7.32;;;4.68;;
76065;SDS011;64763;48.928;8.474;2023-01-29T14:35:23;8.32;;;5.65;;
76065;SDS011;64763;48.928;8.474;2023-01-29T14:37:51;9.02;;;5.45;;
76065;SDS011;64763;48.928;8.474;2023-01-29T14:45:36;8.75;;;5.43;;
76065;SDS011;64763;48.928;8.474;2023-01-29T14:51:04;7.07;;;4.45;;
76065;SDS011;64763;48.928;8.474;2023-01-29T14:53:42;8.65;;;5.15;;
76065;SDS011;64763;48.928;8.474;2023-01-29T14:56:11;9.80;;;5.07;;
76065;SDS011;64763;48.928;8.474;2023-01-29T14:58:50;7.60;;;4.63;;
76065;SDS011;64763;48.928;8.474;2023-01-29T15:01:18;8.65;;;4.95;;
76065;SDS011;64763;48.928;8.474;2023-01-29T15:03:48;8.35;;;5.40;;
76065;SDS011;64763;48.928;8.474;2023-01-29T15:06:27;8.60;;;5.60;;
76065;SDS011;64763;48.928;8.474;2023-01-29T15:08:55;8.25;;;5.47;;
76065;SDS011;64763;48.928;8.474;2023-01-29T15:11:35;8.15;;;5.65;;
76065;SDS011;64763;48.928;8.474;2023-01-29T15:14:17;8.13;;;4.82;;
76065;SDS011;64763;48.928;8.474;2023-01-29T15:19:41;9.40;;;5.40;;
76065;SDS011;64763;48.928;8.474;2023-01-29T15:22:19;6.75;;;4.53;;
76065;SDS011;64763;48.928;8.474;2023-01-29T15:24:46;11.90;;;6.82;;
76065;SDS011;64763;48.928;8.474;2023-01-29T15:27:16;7.95;;;6.15;;
76065;SDS011;64763;48.928;8.474;2023-01-29T15:29:45;7.50;;;4.93;;
76065;SDS011;64763;48.928;8.474;2023-01-29T15:32:14;9.77;;;5.53;;
76065;SDS011;64763;48.928;8.474;2023-01-29T15:34:44;10.63;;;7.28;;
76065;SDS011;64763;48.928;8.474;2023-01-29T15:39:55;10.80;;;6.03;;
76065;SDS011;64763;48.928;8.474;2023-01-29T15:42:21;8.27;;;5.40;;
76065;SDS011;64763;48.928;8.474;2023-01-29T15:44:49;12.23;;;7.47;;
76065;SDS011;64763;48.928;8.474;2023-01-29T15:47:15;9.27;;;5.30;;
76065;SDS011;64763;48.928;8.474;2023-01-29T15:49:41;11.95;;;6.10;;
76065;SDS011;64763;48.928;8.474;2023-01-29T15:52:15;11.15;;;6.03;;
76065;SDS011;64763;48.928;8.474;2023-01-29T15:54:51;9.93;;;5.60;;
76065;SDS011;64763;48.928;8.474;2023-01-29T15:57:18;8.70;;;5.30;;
76065;SDS011;64763;48.928;8.474;2023-01-29T15:59:46;9.05;;;5.38;;
76065;SDS011;64763;48.928;8.474;2023-01-29T16:02:35;9.48;;;5.50;;
76065;SDS011;64763;48.928;8.474;2023-01-29T16:05:02;9.85;;;5.75;;
76065;SDS011;64763;48.928;8.474;2023-01-29T16:07:29;14.45;;;7.28;;
76065;SDS011;64763;48.928;8.474;2023-01-29T16:09:55;12.75;;;6.88;;
76065;SDS011;64763;48.928;8.474;2023-01-29T16:12:20;9.55;;;5.95;;
76065;SDS011;64763;48.928;8.474;2023-01-29T16:14:46;10.25;;;6.25;;
76065;SDS011;64763;48.928;8.474;2023-01-29T16:19:58;11.95;;;6.50;;
76065;SDS011;64763;48.928;8.474;2023-01-29T16:22:29;9.05;;;5.32;;
76065;SDS011;64763;48.928;8.474;2023-01-29T16:25:00;10.85;;;6.18;;
76065;SDS011;64763;48.928;8.474;2023-01-29T16:27:27;11.40;;;6.22;;
76065;SDS011;64763;48.928;8.474;2023-01-29T16:29:53;11.48;;;5.82;;
76065;SDS011;64763;48.928;8.474;2023-01-29T16:32:18;12.50;;;6.82;;
76065;SDS011;64763;48.928;8.474;2023-01-29T16:34:44;9.38;;;5.47;;
76065;SDS011;64763;48.928;8.474;2023-01-29T16:37:17;10.95;;;7.07;;
76065;SDS011;64763;48.928;8.474;2023-01-29T16:39:47;10.13;;;6.18;;
76065;SDS011;64763;48.928;8.474;2023-01-29T16:44:49;9.82;;;6.32;;
76065;SDS011;64763;48.928;8.474;2023-01-29T16:52:56;12.13;;;6.88;;
76065;SDS011;64763;48.928;8.474;2023-01-29T16:55:25;15.82;;;7.03;;
76065;SDS011;64763;48.928;8.474;2023-01-29T16:57:51;12.55;;;6.80;;
76065;SDS011;64763;48.928;8.474;2023-01-29T17:00:22;10.32;;;6.82;;
76065;SDS011;64763;48.928;8.474;2023-01-29T17:02:49;14.27;;;7.00;;
76065;SDS011;64763;48.928;8.474;2023-01-29T17:05:30;11.75;;;5.78;;
76065;SDS011;64763;48.928;8.474;2023-01-29T17:07:57;11.65;;;7.03;;
76065;SDS011;64763;48.928;8.474;2023-01-29T17:10:23;11.73;;;6.50;;
76065;SDS011;64763;48.928;8.474;2023-01-29T17:12:54;18.15;;;8.55;;
76065;SDS011;64763;48.928;8.474;2023-01-29T17:15:31;19.55;;;10.00;;
76065;SDS011;64763;48.928;8.474;2023-01-29T17:18:10;14.82;;;8.65;;